createdAt,value
2023-04-19T00:00:52.986Z,11.47
2023-04-19T00:03:21.094Z,11.48
2023-04-19T00:05:49.263Z,11.54
2023-04-19T00:08:17.154Z,11.54
2023-04-19T00:10:46.526Z,11.56
2023-04-19T00:13:14.463Z,11.57
2023-04-19T00:15:42.439Z,11.60
2023-04-19T00:18:10.457Z,11.57
2023-04-19T00:20:40.013Z,11.52
2023-04-19T00:23:07.934Z,11.24
2023-04-19T00:25:36.023Z,10.91
2023-04-19T00:28:05.650Z,11.02
2023-04-19T00:30:33.674Z,11.17
2023-04-19T00:33:01.640Z,11.26
2023-04-19T00:35:29.654Z,11.30
2023-04-19T00:37:57.554Z,11.32
2023-04-19T00:40:25.569Z,11.32
2023-04-19T00:42:53.467Z,11.24
2023-04-19T00:45:22.790Z,11.22
2023-04-19T00:47:52.934Z,11.10
2023-04-19T00:50:21.343Z,11.04
2023-04-19T00:52:49.666Z,10.92
2023-04-19T00:55:17.632Z,10.79
2023-04-19T00:57:45.552Z,10.87
2023-04-19T01:00:15.050Z,10.93
2023-04-19T01:02:44.442Z,10.95
2023-04-19T01:05:13.033Z,10.89
2023-04-19T01:07:41.200Z,10.91
2023-04-19T01:10:10.260Z,10.91
2023-04-19T01:12:38.300Z,10.89
2023-04-19T01:15:07.293Z,10.78
2023-04-19T01:17:36.162Z,10.53
2023-04-19T01:20:09.064Z,10.37
2023-04-19T01:22:40.220Z,10.32
2023-04-19T01:25:09.646Z,10.37
2023-04-19T01:27:37.553Z,10.48
2023-04-19T01:30:06.457Z,10.31
2023-04-19T01:32:34.438Z,10.29
2023-04-19T01:35:02.463Z,10.38
2023-04-19T01:37:31.498Z,10.46
2023-04-19T01:40:01.143Z,10.43
2023-04-19T01:42:29.482Z,10.54
2023-04-19T01:44:57.420Z,10.64
2023-04-19T01:47:25.425Z,10.70
2023-04-19T01:49:53.377Z,10.69
2023-04-19T01:52:21.611Z,10.71
2023-04-19T01:54:49.793Z,10.68
2023-04-19T01:57:19.861Z,10.60
2023-04-19T01:59:48.769Z,10.61
2023-04-19T02:02:16.837Z,10.62
2023-04-19T02:04:44.929Z,10.62
2023-04-19T02:07:12.813Z,10.66
2023-04-19T02:09:40.798Z,10.69
2023-04-19T02:12:08.995Z,10.66
2023-04-19T02:14:38.288Z,10.63
2023-04-19T02:17:06.241Z,10.57
2023-04-19T02:19:34.182Z,10.50
2023-04-19T02:22:02.114Z,10.37
2023-04-19T02:24:30.101Z,10.36
2023-04-19T02:26:58.317Z,10.38
2023-04-19T02:29:26.334Z,10.42
2023-04-19T02:31:55.728Z,10.45
2023-04-19T02:34:23.682Z,10.42
2023-04-19T02:36:51.698Z,10.42
2023-04-19T02:39:19.632Z,10.39
2023-04-19T02:41:47.553Z,10.39
2023-04-19T02:44:15.685Z,10.38
2023-04-19T02:46:49.777Z,10.28
2023-04-19T02:49:19.319Z,10.26
2023-04-19T02:51:47.308Z,10.29
2023-04-19T02:54:16.134Z,10.30
2023-04-19T02:56:46.219Z,10.32
2023-04-19T02:59:14.134Z,10.30
2023-04-19T03:01:42.695Z,10.30
2023-04-19T03:04:10.837Z,10.33
2023-04-19T03:06:42.165Z,10.33
2023-04-19T03:09:10.323Z,10.29
2023-04-19T03:11:38.760Z,10.28
2023-04-19T03:14:06.683Z,10.27
2023-04-19T03:16:34.822Z,10.22
2023-04-19T03:19:02.795Z,10.24
2023-04-19T03:21:35.885Z,10.21
2023-04-19T03:24:05.413Z,10.21
2023-04-19T03:26:33.718Z,10.21
2023-04-19T03:29:03.041Z,10.19
2023-04-19T03:31:43.696Z,10.08
2023-04-19T03:34:14.237Z,10.12
2023-04-19T03:36:45.796Z,10.15
2023-04-19T03:39:15.129Z,10.12
2023-04-19T03:41:46.450Z,10.15
2023-04-19T03:44:25.093Z,10.16
2023-04-19T03:46:54.088Z,10.14
2023-04-19T03:49:26.579Z,10.14
2023-04-19T03:52:05.255Z,10.06
2023-04-19T03:54:36.160Z,10.10
2023-04-19T03:57:06.239Z,10.08
2023-04-19T03:59:38.021Z,10.03
2023-04-19T04:02:07.264Z,10.01
2023-04-19T04:04:35.594Z,9.95
2023-04-19T04:07:03.678Z,9.89
2023-04-19T04:09:31.633Z,9.95
2023-04-19T04:12:02.005Z,9.89
2023-04-19T04:14:31.397Z,9.91
2023-04-19T04:17:00.814Z,9.94
2023-04-19T04:19:28.768Z,9.93
2023-04-19T04:21:56.905Z,9.91
2023-04-19T04:24:26.230Z,9.88
2023-04-19T04:27:20.311Z,9.88
2023-04-19T04:29:53.098Z,9.86
2023-04-19T04:32:23.334Z,9.88
2023-04-19T04:34:55.628Z,9.85
2023-04-19T04:37:34.508Z,9.85
2023-04-19T04:40:04.946Z,9.88
2023-04-19T04:42:35.675Z,9.88
2023-04-19T04:45:04.344Z,9.82
2023-04-19T04:47:34.174Z,9.77
2023-04-19T04:50:06.142Z,9.77
2023-04-19T04:52:34.393Z,9.61
2023-04-19T04:55:15.019Z,9.44
2023-04-19T04:57:46.663Z,9.39
2023-04-19T05:00:21.730Z,9.45
2023-04-19T05:02:58.673Z,9.49
2023-04-19T05:05:27.139Z,9.54
2023-04-19T05:07:56.874Z,9.61
2023-04-19T05:10:24.888Z,9.68
2023-04-19T05:12:55.295Z,9.69
2023-04-19T05:15:23.490Z,9.68
2023-04-19T05:17:55.051Z,9.69
2023-04-19T05:20:23.716Z,9.68
2023-04-19T05:23:01.242Z,9.59
2023-04-19T05:25:29.168Z,9.60
2023-04-19T05:27:59.041Z,9.58
2023-04-19T05:30:31.908Z,9.45
2023-04-19T05:33:00.250Z,9.41
2023-04-19T05:35:28.732Z,9.44
2023-04-19T05:37:57.163Z,9.51
2023-04-19T05:40:25.950Z,9.53
2023-04-19T05:42:54.089Z,9.43
2023-04-19T05:45:24.366Z,9.45
2023-04-19T05:47:52.517Z,9.46
2023-04-19T05:50:40.562Z,9.53
2023-04-19T05:53:26.796Z,9.56
2023-04-19T05:55:56.615Z,9.58
2023-04-19T05:58:24.734Z,9.52
2023-04-19T06:00:54.477Z,9.52
2023-04-19T06:03:24.896Z,9.49
2023-04-19T06:05:54.771Z,9.44
2023-04-19T06:08:22.760Z,9.47
2023-04-19T06:10:55.696Z,9.46
2023-04-19T06:13:25.384Z,9.34
2023-04-19T06:15:55.171Z,9.49
2023-04-19T06:18:23.136Z,9.59
2023-04-19T06:20:51.495Z,9.62
2023-04-19T06:23:19.473Z,9.58
2023-04-19T06:25:49.005Z,9.63
2023-04-19T06:28:17.230Z,9.68
2023-04-19T06:30:45.184Z,9.86
2023-04-19T06:33:14.529Z,9.80
2023-04-19T06:35:42.430Z,9.71
2023-04-19T06:38:10.341Z,9.76
2023-04-19T06:40:38.262Z,9.82
2023-04-19T06:43:06.296Z,9.85
2023-04-19T06:45:34.321Z,9.91
2023-04-19T06:48:02.487Z,9.99
2023-04-19T06:50:32.006Z,10.21
2023-04-19T06:53:00.005Z,10.30
2023-04-19T06:55:28.169Z,10.34
2023-04-19T06:57:56.055Z,10.44
2023-04-19T07:00:24.556Z,10.60
2023-04-19T07:02:52.688Z,10.81
2023-04-19T07:05:20.743Z,10.90
2023-04-19T07:07:49.977Z,10.91
2023-04-19T07:10:18.142Z,10.85
2023-04-19T07:12:46.216Z,10.75
2023-04-19T07:15:14.150Z,10.82
2023-04-19T07:17:42.247Z,11.00
2023-04-19T07:20:10.924Z,11.18
2023-04-19T07:22:38.832Z,11.41
2023-04-19T07:25:09.305Z,11.65
2023-04-19T07:27:37.219Z,11.87
2023-04-19T07:30:05.677Z,12.03
2023-04-19T07:32:33.812Z,11.88
2023-04-19T07:35:02.375Z,11.84
2023-04-19T07:37:31.396Z,11.97
2023-04-19T07:39:59.564Z,12.12
2023-04-19T07:42:30.940Z,12.17
2023-04-19T07:44:59.669Z,12.38
2023-04-19T07:47:27.659Z,12.39
2023-04-19T07:49:56.772Z,12.38
2023-04-19T07:52:24.682Z,12.34
2023-04-19T07:54:52.619Z,12.46
2023-04-19T07:57:20.576Z,12.46
2023-04-19T07:59:49.882Z,12.52
2023-04-19T08:02:19.232Z,12.15
2023-04-19T08:04:49.758Z,12.31
2023-04-19T08:07:18.032Z,12.59
2023-04-19T08:09:46.040Z,12.61
2023-04-19T08:12:26.280Z,12.55
2023-04-19T08:15:13.522Z,12.64
2023-04-19T08:17:50.511Z,12.89
2023-04-19T08:20:19.553Z,13.05
2023-04-19T08:22:47.700Z,12.72
2023-04-19T08:25:16.648Z,12.71
2023-04-19T08:27:44.649Z,12.90
2023-04-19T08:30:14.611Z,13.05
2023-04-19T08:32:42.522Z,13.10
2023-04-19T08:35:11.160Z,12.91
2023-04-19T08:37:39.067Z,12.96
2023-04-19T08:40:08.625Z,12.76
2023-04-19T08:42:37.284Z,12.83
2023-04-19T08:50:28.363Z,12.99
2023-04-19T08:53:12.160Z,13.02
2023-04-19T08:58:28.861Z,13.14
2023-04-19T09:01:17.066Z,13.16
2023-04-19T09:04:09.623Z,12.98
2023-04-19T09:06:43.915Z,12.92
2023-04-19T09:11:53.405Z,13.14
2023-04-19T09:14:23.686Z,13.07
2023-04-19T09:16:52.609Z,13.20
2023-04-19T09:19:25.216Z,13.07
2023-04-19T09:21:54.811Z,13.13
2023-04-19T09:27:12.250Z,13.78
2023-04-19T09:29:40.556Z,13.78
2023-04-19T09:32:08.585Z,13.68
2023-04-19T09:34:52.783Z,13.59
2023-04-19T09:37:38.474Z,13.83
2023-04-19T09:40:23.325Z,13.98
2023-04-19T09:48:03.441Z,14.00
2023-04-19T09:50:34.142Z,13.91
2023-04-19T09:53:08.044Z,13.88
2023-04-19T09:55:52.626Z,14.03
2023-04-19T09:58:31.820Z,14.09
2023-04-19T10:01:15.127Z,14.11
2023-04-19T10:03:46.898Z,14.25
2023-04-19T10:08:51.262Z,14.13
2023-04-19T10:11:21.969Z,14.23
2023-04-19T10:13:51.096Z,14.24
2023-04-19T10:16:20.509Z,14.44
2023-04-19T10:18:49.885Z,14.64
2023-04-19T10:21:21.206Z,14.75
2023-04-19T10:23:49.794Z,14.63
2023-04-19T10:26:17.777Z,14.78
2023-04-19T10:28:45.737Z,14.89
2023-04-19T10:31:14.256Z,14.97
2023-04-19T10:33:43.032Z,15.12
2023-04-19T10:36:12.255Z,15.04
2023-04-19T10:38:43.514Z,15.15
2023-04-19T10:41:16.494Z,15.16
2023-04-19T10:43:48.413Z,15.12
2023-04-19T10:46:36.994Z,15.11
2023-04-19T10:49:06.460Z,14.97
2023-04-19T10:51:36.584Z,14.78
2023-04-19T10:54:07.186Z,14.81
2023-04-19T10:57:05.062Z,14.97
2023-04-19T10:59:34.426Z,15.09
2023-04-19T11:02:04.306Z,15.22
2023-04-19T11:05:01.839Z,15.33
2023-04-19T11:07:29.867Z,15.38
2023-04-19T11:09:59.191Z,15.18
2023-04-19T11:12:27.114Z,15.14
2023-04-19T11:14:57.711Z,15.19
2023-04-19T11:17:27.947Z,15.22
2023-04-19T11:19:57.571Z,15.29
2023-04-19T11:22:33.536Z,15.42
2023-04-19T11:25:13.173Z,15.59
2023-04-19T11:27:42.910Z,15.59
2023-04-19T11:30:13.193Z,15.56
2023-04-19T11:32:46.727Z,15.57
2023-04-19T11:35:15.097Z,15.72
2023-04-19T11:37:43.016Z,15.85
2023-04-19T11:40:16.500Z,15.93
2023-04-19T11:42:45.001Z,15.90
2023-04-19T11:45:26.099Z,15.68
2023-04-19T11:47:57.814Z,15.82
2023-04-19T11:50:33.915Z,15.94
2023-04-19T11:53:10.675Z,16.09
2023-04-19T11:55:40.144Z,16.09
2023-04-19T11:58:09.823Z,16.07
2023-04-19T12:00:38.054Z,16.23
2023-04-19T12:03:06.355Z,16.25
2023-04-19T12:05:34.907Z,16.20
2023-04-19T12:08:04.762Z,16.34
2023-04-19T12:10:33.434Z,16.19
2023-04-19T12:13:03.056Z,16.24
2023-04-19T12:15:43.728Z,16.28
2023-04-19T12:18:11.763Z,16.35
2023-04-19T12:20:45.762Z,16.48
2023-04-19T12:23:14.036Z,16.52
2023-04-19T12:25:42.128Z,16.48
2023-04-19T12:28:11.456Z,16.42
2023-04-19T12:30:40.169Z,16.56
2023-04-19T12:33:08.564Z,16.77
2023-04-19T12:35:37.502Z,16.77
2023-04-19T12:38:05.397Z,16.72
2023-04-19T12:40:33.806Z,16.84
2023-04-19T12:43:01.757Z,16.85
2023-04-19T12:45:31.892Z,16.96
2023-04-19T12:48:01.140Z,17.06
2023-04-19T12:50:29.065Z,17.02
2023-04-19T12:52:57.013Z,16.93
2023-04-19T12:55:25.041Z,16.89
2023-04-19T12:57:52.937Z,16.88
2023-04-19T13:00:21.247Z,17.05
2023-04-19T13:02:50.729Z,17.23
2023-04-19T13:05:18.833Z,17.41
2023-04-19T13:07:46.946Z,17.52
2023-04-19T13:10:15.074Z,17.68
2023-04-19T13:12:43.049Z,17.79
2023-04-19T13:15:11.824Z,17.91
2023-04-19T13:17:39.792Z,18.01
2023-04-19T13:20:10.690Z,17.84
2023-04-19T13:22:38.644Z,17.65
2023-04-19T13:25:07.417Z,17.78
2023-04-19T13:27:35.346Z,17.94
2023-04-19T13:30:03.514Z,17.80
2023-04-19T13:32:31.501Z,17.96
2023-04-19T13:34:59.482Z,18.19
2023-04-19T13:37:28.794Z,17.91
2023-04-19T13:40:06.939Z,17.70
2023-04-19T13:42:43.141Z,17.67
2023-04-19T13:45:11.592Z,17.72
2023-04-19T13:47:39.588Z,17.78
2023-04-19T13:50:08.872Z,17.91
2023-04-19T13:52:38.239Z,17.94
2023-04-19T13:55:06.728Z,17.99
2023-04-19T13:57:34.659Z,18.01
2023-04-19T14:00:02.642Z,18.12
2023-04-19T14:02:35.203Z,18.29
2023-04-19T14:05:04.617Z,18.18
2023-04-19T14:07:32.654Z,18.34
2023-04-19T14:10:02.015Z,18.51
2023-04-19T14:12:29.965Z,18.57
2023-04-19T14:14:57.879Z,18.49
2023-04-19T14:17:26.288Z,18.55
2023-04-19T14:19:54.312Z,18.49
2023-04-19T14:22:22.281Z,18.40
2023-04-19T14:24:50.190Z,18.58
2023-04-19T14:27:19.450Z,18.33
2023-04-19T14:29:47.377Z,18.24
2023-04-19T14:34:46.416Z,18.34
2023-04-19T14:37:14.326Z,18.51
2023-04-19T14:39:42.212Z,18.66
2023-04-19T14:42:10.103Z,18.43
2023-04-19T14:44:39.423Z,18.56
2023-04-19T14:47:07.555Z,18.70
2023-04-19T14:49:35.562Z,18.76
2023-04-19T14:52:04.015Z,19.01
2023-04-19T14:54:32.048Z,18.75
2023-04-19T14:57:00.279Z,18.12
2023-04-19T14:59:29.848Z,18.04
2023-04-19T15:01:59.384Z,18.41
2023-04-19T15:04:27.591Z,18.76
2023-04-19T15:06:55.637Z,18.19
2023-04-19T15:09:23.589Z,18.41
2023-04-19T15:11:51.557Z,18.68
2023-04-19T15:14:19.827Z,18.97
2023-04-19T15:16:47.753Z,19.18
2023-04-19T15:19:17.139Z,19.08
2023-04-19T15:21:45.250Z,19.02
2023-04-19T15:24:13.161Z,18.81
2023-04-19T15:26:43.621Z,18.55
2023-04-19T15:29:12.278Z,18.41
2023-04-19T15:31:40.545Z,18.41
2023-04-19T15:34:08.522Z,18.13
2023-04-19T15:36:37.866Z,18.26
2023-04-19T15:39:05.755Z,18.24
2023-04-19T15:41:33.689Z,18.14
2023-04-19T15:44:01.605Z,17.88
2023-04-19T15:46:29.581Z,17.85
2023-04-19T15:48:57.510Z,17.71
2023-04-19T15:51:25.448Z,17.57
2023-04-19T15:53:54.837Z,17.51
2023-04-19T15:56:23.249Z,17.47
2023-04-19T15:58:51.099Z,17.36
2023-04-19T16:01:19.433Z,17.20
2023-04-19T16:03:47.537Z,17.17
2023-04-19T16:06:15.742Z,17.14
2023-04-19T16:08:43.685Z,17.04
2023-04-19T16:11:13.040Z,16.85
2023-04-19T16:13:40.975Z,16.46
2023-04-19T16:16:09.080Z,16.35
2023-04-19T16:18:37.017Z,16.36
2023-04-19T16:21:05.212Z,16.52
2023-04-19T16:23:33.116Z,16.68
2023-04-19T16:26:01.103Z,16.68
2023-04-19T16:28:30.453Z,16.73
2023-04-19T16:30:58.444Z,16.72
2023-04-19T16:33:26.341Z,16.75
2023-04-19T16:35:54.448Z,16.75
2023-04-19T16:38:22.453Z,16.66
2023-04-19T16:40:50.498Z,16.64
2023-04-19T16:43:20.799Z,16.65
2023-04-19T16:45:50.173Z,16.66
2023-04-19T16:48:18.339Z,16.64
2023-04-19T16:50:46.588Z,16.59
2023-04-19T16:53:14.495Z,16.54
2023-04-19T16:55:42.449Z,16.53
2023-04-19T16:58:10.317Z,16.51
2023-04-19T17:00:39.271Z,16.68
2023-04-19T17:03:09.833Z,16.44
2023-04-19T17:05:37.852Z,16.28
2023-04-19T17:08:06.508Z,16.13
2023-04-19T17:10:34.673Z,16.09
2023-04-19T17:13:02.572Z,16.08
2023-04-19T17:15:31.574Z,16.04
2023-04-19T17:17:59.613Z,15.99
2023-04-19T17:20:29.030Z,15.98
2023-04-19T17:22:57.138Z,15.96
2023-04-19T17:25:25.041Z,15.91
2023-04-19T17:27:52.953Z,15.91
2023-04-19T17:30:20.893Z,15.92
2023-04-19T17:32:48.812Z,15.95
2023-04-19T17:35:17.000Z,15.92
2023-04-19T17:37:46.260Z,15.97
2023-04-19T17:40:14.305Z,15.97
2023-04-19T17:42:42.207Z,15.95
2023-04-19T17:45:11.254Z,16.04
2023-04-19T17:47:39.533Z,16.15
2023-04-19T17:50:09.098Z,16.30
2023-04-19T17:52:37.184Z,16.21
2023-04-19T17:55:07.494Z,16.27
2023-04-19T17:57:35.652Z,16.31
2023-04-19T18:00:06.113Z,16.28
2023-04-19T18:02:37.312Z,16.29
2023-04-19T18:05:05.986Z,16.29
2023-04-19T18:07:34.145Z,16.23
2023-04-19T18:10:02.010Z,16.13
2023-04-19T18:12:31.435Z,16.13
2023-04-19T18:14:59.335Z,16.11
2023-04-19T18:17:27.253Z,15.99
2023-04-19T18:19:55.257Z,15.93
2023-04-19T18:22:23.211Z,15.91
2023-04-19T18:24:51.568Z,15.90
2023-04-19T18:27:19.477Z,15.83
2023-04-19T18:29:52.279Z,15.80
2023-04-19T18:32:21.879Z,15.74
2023-04-19T18:34:49.884Z,15.72
2023-04-19T18:37:18.544Z,15.65
2023-04-19T18:39:46.673Z,15.63
2023-04-19T18:42:14.620Z,15.61
2023-04-19T18:47:14.893Z,15.59
2023-04-19T18:49:52.667Z,15.57
2023-04-19T18:52:27.622Z,15.47
2023-04-19T18:54:58.364Z,15.47
2023-04-19T18:57:27.640Z,15.40
2023-04-19T18:59:57.147Z,15.38
2023-04-19T19:02:27.567Z,15.34
2023-04-19T19:04:58.366Z,15.24
2023-04-19T19:10:02.526Z,15.16
2023-04-19T19:12:33.757Z,15.12
2023-04-19T19:15:01.639Z,15.08
2023-04-19T19:17:31.090Z,14.94
2023-04-19T19:20:01.188Z,14.92
2023-04-19T19:22:29.303Z,14.89
2023-04-19T19:24:57.506Z,14.86
2023-04-19T19:27:25.746Z,14.77
2023-04-19T19:29:53.731Z,14.68
2023-04-19T19:32:22.152Z,14.68
2023-04-19T19:34:56.695Z,14.67
2023-04-19T19:37:29.932Z,14.58
2023-04-19T19:40:02.793Z,14.53
2023-04-19T19:42:32.386Z,14.57
2023-04-19T19:45:00.286Z,14.52
2023-04-19T19:47:30.763Z,14.51
2023-04-19T19:52:31.938Z,14.31
2023-04-19T19:55:00.319Z,14.33
2023-04-19T20:00:17.915Z,14.26
2023-04-19T20:05:20.916Z,14.14
2023-04-19T20:10:20.602Z,14.09
2023-04-19T20:12:48.571Z,14.03
2023-04-19T20:15:16.614Z,13.93
2023-04-19T20:17:44.634Z,13.84
2023-04-19T20:20:13.655Z,13.70
2023-04-19T20:22:42.938Z,13.73
2023-04-19T20:25:13.153Z,13.72
2023-04-19T20:27:41.260Z,13.63
2023-04-19T20:30:10.737Z,13.67
2023-04-19T20:32:42.455Z,13.60
2023-04-19T20:35:12.718Z,13.60
2023-04-19T20:37:42.075Z,13.57
2023-04-19T20:40:12.522Z,13.61
2023-04-19T20:42:41.351Z,13.55
2023-04-19T20:45:10.948Z,13.65
2023-04-19T20:47:39.475Z,13.58
2023-04-19T20:50:08.349Z,13.62
2023-04-19T20:52:36.555Z,13.61
2023-04-19T20:55:06.585Z,13.63
2023-04-19T20:57:34.515Z,13.64
2023-04-19T21:00:02.454Z,13.62
2023-04-19T21:02:30.559Z,13.46
2023-04-19T21:04:58.527Z,13.42
2023-04-19T21:07:26.484Z,13.34
2023-04-19T21:09:54.451Z,13.41
2023-04-19T21:12:23.785Z,13.32
2023-04-19T21:14:52.859Z,13.33
2023-04-19T21:17:21.448Z,13.31
2023-04-19T21:19:49.439Z,13.21
2023-04-19T21:22:17.387Z,13.17
2023-04-19T21:24:45.268Z,13.20
2023-04-19T21:27:13.208Z,13.17
2023-04-19T21:29:42.488Z,13.28
2023-04-19T21:32:10.414Z,13.33
2023-04-19T21:34:38.379Z,13.31
2023-04-19T21:37:06.363Z,13.30
2023-04-19T21:39:34.271Z,13.21
2023-04-19T21:42:02.298Z,13.17
2023-04-19T21:44:30.272Z,13.03
2023-04-19T21:46:59.682Z,12.98
2023-04-19T21:49:27.695Z,12.90
2023-04-19T21:51:56.889Z,12.70
2023-04-19T21:54:33.501Z,12.61
2023-04-19T21:57:02.616Z,12.53
2023-04-19T21:59:30.943Z,12.69
2023-04-19T22:02:00.810Z,12.72
2023-04-19T22:04:30.980Z,12.72
2023-04-19T22:07:02.114Z,12.73
2023-04-19T22:09:31.125Z,12.70
2023-04-19T22:12:00.120Z,12.60
2023-04-19T22:14:28.493Z,12.46
2023-04-19T22:16:56.655Z,12.34
2023-04-19T22:19:26.153Z,12.31
2023-04-19T22:21:55.139Z,12.33
2023-04-19T22:24:23.322Z,12.38
2023-04-19T22:26:53.063Z,12.46
2023-04-19T22:29:21.469Z,12.52
2023-04-19T22:31:49.488Z,12.54
2023-04-19T22:34:17.453Z,12.52
2023-04-19T22:36:46.879Z,12.47
2023-04-19T22:39:16.051Z,12.48
2023-04-19T22:41:44.167Z,12.47
2023-04-19T22:44:12.146Z,12.41
2023-04-19T22:46:40.172Z,12.38
2023-04-19T22:49:10.097Z,12.31
2023-04-19T22:51:38.416Z,12.30
2023-04-19T22:54:07.725Z,12.25
2023-04-19T22:56:35.829Z,12.18
2023-04-19T22:59:03.823Z,11.91
2023-04-19T23:01:31.832Z,11.42
2023-04-19T23:03:59.797Z,11.18
2023-04-19T23:06:29.083Z,11.29
2023-04-19T23:08:57.367Z,11.60
2023-04-19T23:11:26.939Z,11.76
2023-04-19T23:13:54.922Z,11.84
2023-04-19T23:16:25.336Z,11.91
2023-04-19T23:18:53.325Z,11.93
2023-04-19T23:21:21.235Z,11.94
2023-04-19T23:23:49.174Z,11.97
2023-04-19T23:26:17.115Z,11.97
2023-04-19T23:28:46.442Z,11.96
2023-04-19T23:31:14.378Z,11.83
2023-04-19T23:33:42.280Z,11.84
2023-04-19T23:36:10.369Z,11.85
2023-04-19T23:38:38.261Z,11.81
2023-04-19T23:41:06.596Z,11.77
2023-04-19T23:43:34.497Z,11.59
2023-04-19T23:46:03.979Z,11.61
2023-04-19T23:48:31.898Z,11.62
2023-04-19T23:50:59.805Z,11.66
2023-04-19T23:53:27.699Z,11.71
2023-04-19T23:55:55.654Z,11.68
2023-04-19T23:58:23.588Z,11.72
